Time;durP1;ratioP1;P1;durP2;ratioP2;P2;SDS_P1;SDS_P2;PMS_P1;PMS_P2;Temp;Humidity;BMP_temperature;BMP_pressure;BME280_temperature;BME280_humidity;BME280_pressure;Samples;Min_cycle;Max_cycle;Signal;HPM_P1;HPM_P2
2024/03/13 00:00:16;;;;;;;25.77;18.70;;;8.20;99.90;;;;;;5015014;28;21056;-65
2024/03/13 00:02:45;;;;;;;26.53;18.93;;;8.10;99.90;;;;;;5013225;28;20899;-65
2024/03/13 00:05:15;;;;;;;24.07;17.73;;;8.10;99.90;;;;;;5018474;28;20534;-65
2024/03/13 00:07:43;;;;;;;22.70;17.07;;;8.10;99.90;;;;;;5017846;28;20507;-65
2024/03/13 00:10:11;;;;;;;23.50;17.63;;;8.10;99.90;;;;;;5018202;28;21000;-65
2024/03/13 00:12:42;;;;;;;25.93;17.50;;;8.10;99.90;;;;;;5018261;28;20487;-65
2024/03/13 00:15:11;;;;;;;24.37;17.67;;;8.00;99.90;;;;;;5020255;28;20505;-65
2024/03/13 00:17:39;;;;;;;23.90;17.10;;;8.00;99.90;;;;;;5016687;28;20468;-65
2024/03/13 00:20:11;;;;;;;23.37;17.30;;;8.00;99.90;;;;;;5021033;28;20499;-65
2024/03/13 00:22:41;;;;;;;25.17;17.80;;;7.90;99.90;;;;;;5018124;28;20547;-65
2024/03/13 00:25:11;;;;;;;24.47;17.53;;;7.90;99.90;;;;;;5015880;28;20541;-65
2024/03/13 00:27:41;;;;;;;22.93;17.53;;;7.80;99.90;;;;;;5015132;28;20482;-65
2024/03/13 00:30:10;;;;;;;25.87;18.43;;;7.70;99.90;;;;;;5017721;28;20503;-65
2024/03/13 00:32:39;;;;;;;22.03;16.77;;;7.70;99.90;;;;;;5015068;28;20491;-66
2024/03/13 00:35:07;;;;;;;25.17;16.50;;;7.70;99.90;;;;;;5016991;28;20931;-65
2024/03/13 00:37:36;;;;;;;23.87;17.17;;;7.70;99.90;;;;;;5009757;28;20914;-65
2024/03/13 00:40:06;;;;;;;23.60;17.97;;;7.70;99.90;;;;;;5018489;28;21036;-65
2024/03/13 00:42:34;;;;;;;25.80;17.20;;;7.70;99.90;;;;;;5018136;28;20468;-65
2024/03/13 00:45:04;;;;;;;25.43;18.83;;;7.70;99.90;;;;;;5017328;28;21015;-66
2024/03/13 00:47:32;;;;;;;27.67;17.40;;;7.70;99.90;;;;;;5017510;28;20472;-66
2024/03/13 00:50:02;;;;;;;22.60;17.33;;;7.70;99.90;;;;;;5016795;28;20504;-65
2024/03/13 00:52:30;;;;;;;26.00;17.87;;;7.60;99.90;;;;;;5017385;28;20523;-66
2024/03/13 00:54:58;;;;;;;23.63;16.53;;;7.60;99.90;;;;;;5014661;28;20483;-66
2024/03/13 00:57:28;;;;;;;22.27;16.10;;;7.60;99.90;;;;;;5012385;28;20475;-66
2024/03/13 00:59:58;;;;;;;24.80;17.30;;;7.60;99.90;;;;;;5014728;28;20518;-65
2024/03/13 01:02:26;;;;;;;24.10;17.43;;;7.60;99.90;;;;;;5017722;28;20505;-65
2024/03/13 01:04:54;;;;;;;23.57;17.33;;;7.60;99.90;;;;;;5012924;28;20584;-66
2024/03/13 01:07:23;;;;;;;23.77;16.90;;;7.60;99.90;;;;;;5014909;28;20479;-66
2024/03/13 01:09:51;;;;;;;23.83;17.00;;;7.60;99.90;;;;;;5017427;28;21052;-66
2024/03/13 01:12:19;;;;;;;24.93;17.80;;;7.60;99.90;;;;;;5014252;28;20496;-65
2024/03/13 01:14:49;;;;;;;26.80;19.07;;;7.50;99.90;;;;;;5017331;28;20490;-67
2024/03/13 01:17:17;;;;;;;22.80;17.83;;;7.50;99.90;;;;;;5016932;28;20467;-65
2024/03/13 01:19:45;;;;;;;24.20;17.30;;;7.50;99.90;;;;;;5009905;28;20835;-66
2024/03/13 01:22:17;;;;;;;25.37;17.90;;;7.40;99.90;;;;;;5012726;28;20486;-65
2024/03/13 01:24:46;;;;;;;24.13;18.47;;;7.40;99.90;;;;;;5016904;28;20551;-64
2024/03/13 01:27:14;;;;;;;23.97;17.83;;;7.40;99.90;;;;;;5015086;28;20471;-65
2024/03/13 01:29:46;;;;;;;23.27;17.00;;;7.30;99.90;;;;;;5014914;28;20518;-66
2024/03/13 01:32:17;;;;;;;25.00;17.73;;;7.30;99.90;;;;;;5018332;28;20468;-65
2024/03/13 01:34:46;;;;;;;26.93;17.83;;;7.30;99.90;;;;;;5015326;28;20496;-65
2024/03/13 01:40:04;;;;;;;24.37;17.97;;;7.30;99.90;;;;;;5012987;28;20487;-65
2024/03/13 01:55:06;;;;;;;26.37;18.27;;;7.10;99.90;;;;;;5019659;28;20537;-65
2024/03/13 01:57:45;;;;;;;28.17;18.70;;;7.10;99.90;;;;;;5017006;28;20559;-65
2024/03/13 02:03:02;;;;;;;26.60;18.97;;;7.00;99.90;;;;;;5012902;28;20588;-67
2024/03/13 02:05:31;;;;;;;27.57;18.30;;;7.00;99.90;;;;;;5015840;28;20544;-64
2024/03/13 02:07:59;;;;;;;27.80;19.03;;;7.00;99.90;;;;;;5017398;28;20471;-65
2024/03/13 02:10:27;;;;;;;28.20;19.23;;;7.00;99.90;;;;;;5014388;28;20491;-64
2024/03/13 02:13:03;;;;;;;27.30;18.30;;;7.00;99.90;;;;;;5010550;28;20525;-65
2024/03/13 02:15:31;;;;;;;28.33;19.00;;;7.00;99.90;;;;;;5017481;28;21247;-66
2024/03/13 02:18:00;;;;;;;28.00;19.43;;;6.90;99.90;;;;;;5015486;28;21044;-65
2024/03/13 02:20:33;;;;;;;28.17;19.40;;;6.90;99.90;;;;;;5016831;28;20525;-65
2024/03/13 02:23:04;;;;;;;29.80;20.37;;;6.90;99.90;;;;;;5017290;28;20552;-65
2024/03/13 02:25:33;;;;;;;31.90;20.27;;;6.80;99.90;;;;;;5015133;28;20551;-65
2024/03/13 02:28:02;;;;;;;29.93;20.20;;;6.80;99.90;;;;;;5011547;28;22309;-64
2024/03/13 02:30:30;;;;;;;28.97;19.90;;;6.80;99.90;;;;;;5012568;28;20575;-65
2024/03/13 02:32:58;;;;;;;29.33;20.03;;;6.80;99.90;;;;;;5013028;28;20501;-65
2024/03/13 02:35:27;;;;;;;27.70;18.80;;;6.80;99.90;;;;;;5015656;28;20576;-69
2024/03/13 02:37:55;;;;;;;22.63;17.60;;;6.70;99.90;;;;;;5014728;28;20975;-69
2024/03/13 02:40:23;;;;;;;27.63;18.87;;;6.70;99.90;;;;;;5011264;28;20551;-68
2024/03/13 02:42:53;;;;;;;24.60;18.00;;;6.70;99.90;;;;;;5015609;28;20479;-67
2024/03/13 02:45:22;;;;;;;27.67;18.70;;;6.70;99.90;;;;;;5016186;28;20475;-67
2024/03/13 02:47:51;;;;;;;26.67;19.40;;;6.70;99.90;;;;;;5014489;28;20528;-67
2024/03/13 02:50:20;;;;;;;26.10;18.13;;;6.60;99.90;;;;;;5015487;28;20492;-67
2024/03/13 02:52:49;;;;;;;28.03;19.00;;;6.60;99.90;;;;;;5013662;28;20463;-67
2024/03/13 02:55:18;;;;;;;27.97;18.63;;;6.60;99.90;;;;;;5011659;28;20550;-69
2024/03/13 02:57:54;;;;;;;26.57;18.13;;;6.50;99.90;;;;;;5015579;28;21023;-68
2024/03/13 03:00:24;;;;;;;29.80;19.60;;;6.50;99.90;;;;;;5012441;28;20502;-69
2024/03/13 03:02:54;;;;;;;31.70;19.10;;;6.40;99.90;;;;;;5011822;28;20471;-67
2024/03/13 03:05:22;;;;;;;29.50;19.73;;;6.40;99.90;;;;;;5015726;28;20468;-67
2024/03/13 03:07:50;;;;;;;28.37;18.53;;;6.40;99.90;;;;;;5018467;28;20473;-67
2024/03/13 03:10:19;;;;;;;29.00;19.93;;;6.40;99.90;;;;;;5019715;28;20558;-67
2024/03/13 03:12:48;;;;;;;26.80;20.10;;;6.30;99.90;;;;;;5012540;28;20480;-68
2024/03/13 03:15:18;;;;;;;25.33;18.60;;;6.30;99.90;;;;;;5016478;28;21556;-68
2024/03/13 03:17:46;;;;;;;27.73;19.13;;;6.30;99.90;;;;;;5019310;28;20476;-67
2024/03/13 03:20:18;;;;;;;29.63;19.10;;;6.30;99.90;;;;;;5016141;28;20527;-67
2024/03/13 03:22:46;;;;;;;29.83;19.77;;;6.30;99.90;;;;;;5015391;28;21223;-67
2024/03/13 03:25:14;;;;;;;28.80;20.87;;;6.30;99.90;;;;;;5009746;28;20463;-67
2024/03/13 03:27:43;;;;;;;25.10;18.07;;;6.20;99.90;;;;;;5018163;28;20504;-68
2024/03/13 03:30:12;;;;;;;27.77;19.57;;;6.20;99.90;;;;;;5001297;28;20594;-67
2024/03/13 03:32:40;;;;;;;27.53;19.10;;;6.20;99.90;;;;;;5017209;28;20534;-69
2024/03/13 03:35:10;;;;;;;29.67;19.83;;;6.20;99.90;;;;;;5019925;28;20492;-67
2024/03/13 03:37:39;;;;;;;30.83;20.63;;;6.10;99.90;;;;;;5015093;28;20495;-66
2024/03/13 03:40:13;;;;;;;31.93;19.93;;;6.10;99.90;;;;;;5001085;28;20519;-66
2024/03/13 03:42:41;;;;;;;30.63;19.87;;;6.10;99.90;;;;;;5016703;28;20475;-66
2024/03/13 03:45:11;;;;;;;28.80;20.53;;;6.10;99.90;;;;;;5011266;28;20483;-68
2024/03/13 03:47:39;;;;;;;31.80;20.27;;;6.10;99.90;;;;;;4998042;28;20475;-66
2024/03/13 03:50:08;;;;;;;29.70;19.77;;;6.10;99.90;;;;;;5010109;28;20488;-67
2024/03/13 03:52:38;;;;;;;31.53;21.30;;;6.10;99.90;;;;;;5002484;28;20495;-67
2024/03/13 03:55:06;;;;;;;26.83;19.20;;;6.00;99.90;;;;;;5018112;28;20484;-68
2024/03/13 03:57:35;;;;;;;30.23;20.87;;;6.00;99.90;;;;;;4999124;28;20463;-67
2024/03/13 04:00:05;;;;;;;31.80;20.63;;;6.00;99.90;;;;;;5000106;28;21619;-67
2024/03/13 04:02:34;;;;;;;29.50;19.60;;;6.00;99.90;;;;;;5017724;28;20558;-67
2024/03/13 04:05:06;;;;;;;28.17;21.13;;;6.00;99.90;;;;;;5007851;28;20479;-67
2024/03/13 04:07:35;;;;;;;27.60;19.03;;;6.00;99.90;;;;;;5019912;28;20476;-67
2024/03/13 04:10:05;;;;;;;29.40;19.20;;;6.00;99.90;;;;;;5017172;28;20586;-67
2024/03/13 04:12:33;;;;;;;30.20;20.20;;;5.90;99.90;;;;;;5016993;28;20892;-68
2024/03/13 04:15:04;;;;;;;31.97;21.67;;;5.90;99.90;;;;;;5035968;28;20478;-66
2024/03/13 04:17:33;;;;;;;32.10;21.53;;;5.90;99.90;;;;;;5036385;28;20471;-67
2024/03/13 04:20:02;;;;;;;34.37;20.00;;;5.90;99.90;;;;;;5017974;28;20928;-66
2024/03/13 04:22:31;;;;;;;27.37;18.70;;;5.90;99.90;;;;;;5020683;28;20565;-66
2024/03/13 04:25:00;;;;;;;33.27;21.07;;;5.80;99.90;;;;;;5013274;28;20467;-67
2024/03/13 04:27:28;;;;;;;30.43;20.13;;;5.80;99.90;;;;;;5000086;28;20463;-67
2024/03/13 04:29:56;;;;;;;29.10;18.97;;;5.80;99.90;;;;;;4999416;28;20590;-67
2024/03/13 04:32:25;;;;;;;29.10;19.23;;;5.70;99.90;;;;;;5015639;28;20557;-68
2024/03/13 04:34:54;;;;;;;30.07;20.67;;;5.70;99.90;;;;;;5017447;28;20486;-67
2024/03/13 04:37:23;;;;;;;31.20;20.17;;;5.70;99.90;;;;;;5016606;28;21068;-66
2024/03/13 04:39:51;;;;;;;29.07;19.77;;;5.70;99.90;;;;;;5001427;28;20484;-68
2024/03/13 04:42:19;;;;;;;28.10;20.23;;;5.70;99.90;;;;;;5000538;28;20484;-67
2024/03/13 04:44:49;;;;;;;29.87;20.50;;;5.70;99.90;;;;;;5001424;28;20572;-67
2024/03/13 04:47:18;;;;;;;29.67;19.50;;;5.70;99.90;;;;;;5019533;28;20897;-67
2024/03/13 04:49:46;;;;;;;28.43;19.70;;;5.70;99.90;;;;;;5014640;28;20580;-67
2024/03/13 04:52:15;;;;;;;29.73;19.17;;;5.70;99.90;;;;;;5006913;28;20531;-69
2024/03/13 04:54:43;;;;;;;31.50;18.87;;;5.60;99.90;;;;;;5015213;28;20488;-69
2024/03/13 04:57:11;;;;;;;30.10;19.40;;;5.70;99.90;;;;;;5014995;28;20911;-67
2024/03/13 04:59:39;;;;;;;30.13;20.47;;;5.60;99.90;;;;;;4999294;28;21055;-66
2024/03/13 05:02:07;;;;;;;31.57;20.43;;;5.60;99.90;;;;;;4998814;28;20568;-66
2024/03/13 05:04:36;;;;;;;30.63;20.00;;;5.50;99.90;;;;;;5000643;28;20475;-66
2024/03/13 05:07:08;;;;;;;28.00;19.60;;;5.60;99.90;;;;;;5016087;28;20477;-67
2024/03/13 05:09:36;;;;;;;27.30;17.83;;;5.50;99.90;;;;;;5017647;28;20985;-67
2024/03/13 05:12:05;;;;;;;29.17;19.23;;;5.50;99.90;;;;;;5012282;28;20475;-67
2024/03/13 05:14:33;;;;;;;28.20;18.87;;;5.40;99.90;;;;;;5013030;28;20559;-67
2024/03/13 05:17:02;;;;;;;31.30;19.80;;;5.40;99.90;;;;;;5012375;28;20483;-67
2024/03/13 05:19:30;;;;;;;31.20;19.87;;;5.40;99.90;;;;;;5014990;28;20567;-66
2024/03/13 05:21:58;;;;;;;27.67;18.73;;;5.40;99.90;;;;;;5013493;28;20898;-67
2024/03/13 05:24:26;;;;;;;30.83;19.03;;;5.40;99.90;;;;;;5014840;28;20474;-67
2024/03/13 05:26:54;;;;;;;31.77;20.47;;;5.40;99.90;;;;;;5014873;28;20558;-67
2024/03/13 05:29:22;;;;;;;33.37;19.90;;;5.30;99.90;;;;;;5015086;28;21047;-67
2024/03/13 05:31:51;;;;;;;32.77;19.77;;;5.30;99.90;;;;;;5011153;28;20518;-66
2024/03/13 05:34:19;;;;;;;33.40;20.17;;;5.30;99.90;;;;;;5011998;28;20574;-67
2024/03/13 05:36:47;;;;;;;32.90;22.10;;;5.30;99.90;;;;;;5003511;28;20482;-67
2024/03/13 05:39:15;;;;;;;30.70;19.20;;;5.30;99.90;;;;;;5011694;28;20468;-67
2024/03/13 05:41:46;;;;;;;28.40;19.73;;;5.30;99.90;;;;;;5009049;28;20541;-68
2024/03/13 05:44:15;;;;;;;28.40;18.77;;;5.30;99.90;;;;;;4997651;28;21101;-67
2024/03/13 05:46:43;;;;;;;32.93;20.03;;;5.20;99.90;;;;;;4995693;28;20479;-68
2024/03/13 05:49:16;;;;;;;32.20;21.00;;;5.20;99.90;;;;;;4996209;28;20571;-66
2024/03/13 05:51:44;;;;;;;28.93;19.20;;;5.20;99.90;;;;;;5008293;28;21209;-67
2024/03/13 05:54:13;;;;;;;30.53;20.23;;;5.20;99.90;;;;;;4992842;28;20870;-66
2024/03/13 05:56:41;;;;;;;34.50;19.57;;;5.20;99.90;;;;;;5013658;28;20599;-66
2024/03/13 05:59:09;;;;;;;31.87;20.03;;;5.20;99.90;;;;;;5011672;28;20488;-67
2024/03/13 06:01:37;;;;;;;33.00;20.67;;;5.20;99.90;;;;;;4994014;28;20474;-68
2024/03/13 06:04:06;;;;;;;32.23;20.03;;;5.20;99.90;;;;;;4994241;28;20486;-67
2024/03/13 06:06:34;;;;;;;31.77;20.13;;;5.20;99.90;;;;;;5014170;28;20476;-67
2024/03/13 06:09:06;;;;;;;34.90;21.87;;;5.20;99.90;;;;;;5010931;28;20475;-68
2024/03/13 06:11:35;;;;;;;32.40;19.87;;;5.20;99.90;;;;;;5012774;28;20511;-69
2024/03/13 06:14:03;;;;;;;31.33;18.60;;;5.20;99.90;;;;;;5010042;28;20487;-66
2024/03/13 06:16:31;;;;;;;32.97;20.17;;;5.20;99.90;;;;;;5009426;28;20495;-66
2024/03/13 06:18:59;;;;;;;36.40;22.37;;;5.30;99.90;;;;;;5004311;28;20468;-67
2024/03/13 06:21:28;;;;;;;30.87;19.77;;;5.20;99.90;;;;;;5003740;28;21938;-67
2024/03/13 06:24:00;;;;;;;33.97;20.87;;;5.20;99.90;;;;;;5006107;28;20585;-66
2024/03/13 06:26:28;;;;;;;33.73;20.60;;;5.20;99.90;;;;;;5014377;28;20523;-66
2024/03/13 06:31:43;;;;;;;33.37;21.93;;;5.30;99.90;;;;;;4993434;28;20724;-66
2024/03/13 06:34:11;;;;;;;35.80;21.03;;;5.30;99.90;;;;;;5007087;28;20552;-66
2024/03/13 06:36:40;;;;;;;34.33;20.83;;;5.30;99.90;;;;;;5011343;28;20491;-67
2024/03/13 06:39:09;;;;;;;35.17;20.87;;;5.30;99.90;;;;;;5011396;28;20503;-66
2024/03/13 06:41:37;;;;;;;33.93;22.00;;;5.30;99.90;;;;;;5017290;28;20542;-67
2024/03/13 06:44:06;;;;;;;34.30;21.07;;;5.30;99.90;;;;;;5013655;28;20474;-67
2024/03/13 06:46:34;;;;;;;32.53;20.90;;;5.30;99.90;;;;;;5018925;28;20449;-67
2024/03/13 06:49:03;;;;;;;36.10;20.60;;;5.40;99.90;;;;;;5014847;28;20475;-67
2024/03/13 06:51:31;;;;;;;34.53;20.90;;;5.40;99.90;;;;;;5015602;28;20523;-67
2024/03/13 06:54:00;;;;;;;40.23;22.60;;;5.50;99.90;;;;;;5013302;28;21067;-66
2024/03/13 06:56:28;;;;;;;32.23;19.97;;;5.40;99.90;;;;;;5013621;28;20491;-66
2024/03/13 06:58:56;;;;;;;37.57;21.87;;;5.50;99.90;;;;;;5015348;28;20551;-66
2024/03/13 07:01:24;;;;;;;34.00;21.37;;;5.50;99.90;;;;;;5014724;28;20585;-66
2024/03/13 07:03:53;;;;;;;36.70;22.30;;;5.50;99.90;;;;;;5012832;28;20492;-66
2024/03/13 07:06:21;;;;;;;37.07;22.80;;;5.50;99.90;;;;;;5013392;28;20968;-66
2024/03/13 07:08:49;;;;;;;37.57;23.30;;;5.60;99.90;;;;;;4996470;28;20529;-66
2024/03/13 07:11:17;;;;;;;36.00;21.30;;;5.60;99.90;;;;;;5016160;28;20553;-66
2024/03/13 07:13:45;;;;;;;29.47;20.53;;;5.60;99.90;;;;;;4999165;28;20494;-66
2024/03/13 07:16:14;;;;;;;36.23;21.67;;;5.70;99.90;;;;;;5000483;28;20586;-66
2024/03/13 07:18:42;;;;;;;33.67;22.23;;;5.70;99.90;;;;;;5012323;28;20483;-66
2024/03/13 07:21:11;;;;;;;37.30;21.20;;;5.70;99.90;;;;;;5014875;28;20499;-66
2024/03/13 07:23:39;;;;;;;33.30;20.50;;;5.70;99.90;;;;;;5015076;28;21106;-66
2024/03/13 07:26:08;;;;;;;33.53;20.60;;;5.80;99.90;;;;;;5011330;28;20459;-66
2024/03/13 07:28:38;;;;;;;34.23;21.37;;;5.80;99.90;;;;;;5012736;28;20517;-66
2024/03/13 07:31:07;;;;;;;34.87;21.60;;;5.80;99.90;;;;;;5010731;28;20570;-67
2024/03/13 07:33:37;;;;;;;35.00;21.30;;;5.90;99.90;;;;;;4995716;28;20495;-66
2024/03/13 07:36:07;;;;;;;33.27;21.97;;;6.00;99.90;;;;;;5009893;28;20578;-65
2024/03/13 07:38:36;;;;;;;34.60;20.70;;;6.00;99.90;;;;;;5013089;28;20573;-66
2024/03/13 07:41:10;;;;;;;35.80;21.03;;;6.00;99.90;;;;;;5017804;28;21120;-66
2024/03/13 07:43:39;;;;;;;36.87;23.00;;;6.10;99.90;;;;;;5012802;28;20483;-66
2024/03/13 07:46:09;;;;;;;32.60;20.33;;;6.20;99.90;;;;;;5011607;28;20843;-66
2024/03/13 07:48:37;;;;;;;32.70;21.50;;;6.30;99.90;;;;;;4997071;28;20517;-65
2024/03/13 07:51:09;;;;;;;31.60;20.10;;;6.40;99.90;;;;;;5013321;28;20492;-66
2024/03/13 07:53:37;;;;;;;32.10;21.10;;;6.40;99.90;;;;;;5016067;28;20483;-66
2024/03/13 07:56:06;;;;;;;34.83;21.30;;;6.50;99.90;;;;;;5016741;28;20523;-66
2024/03/13 07:58:34;;;;;;;32.27;21.70;;;6.60;99.90;;;;;;5010351;28;20976;-66
2024/03/13 08:01:05;;;;;;;32.10;20.50;;;6.60;99.90;;;;;;4997250;28;20584;-66
2024/03/13 08:03:33;;;;;;;32.93;20.80;;;6.70;99.90;;;;;;5009036;28;20511;-66
2024/03/13 08:06:02;;;;;;;28.70;18.73;;;6.80;99.90;;;;;;5011186;28;20559;-66
2024/03/13 08:08:47;;;;;;;32.80;19.17;;;6.90;99.90;;;;;;5013887;28;20514;-66
2024/03/13 08:11:33;;;;;;;31.10;19.43;;;7.00;99.90;;;;;;5000058;28;20625;-67
2024/03/13 08:14:18;;;;;;;34.57;19.90;;;7.10;99.90;;;;;;5018284;28;20486;-67
2024/03/13 08:17:06;;;;;;;30.07;18.57;;;7.20;99.90;;;;;;5013698;28;20698;-66
2024/03/13 08:19:53;;;;;;;29.03;19.10;;;7.30;99.90;;;;;;5013408;28;20494;-66
2024/03/13 08:22:39;;;;;;;30.07;18.63;;;7.40;99.90;;;;;;5016154;28;20467;-66
2024/03/13 08:25:24;;;;;;;29.50;18.97;;;7.50;99.90;;;;;;5016086;28;20562;-64
2024/03/13 08:28:10;;;;;;;29.80;18.80;;;7.60;99.90;;;;;;5004907;28;280499;-66
2024/03/13 08:30:59;;;;;;;29.23;19.30;;;7.60;99.90;;;;;;5013602;28;20493;-65
2024/03/13 08:33:44;;;;;;;29.97;18.80;;;7.70;99.90;;;;;;5014535;28;20479;-64
2024/03/13 08:36:32;;;;;;;27.07;18.23;;;7.80;99.90;;;;;;4997055;28;20577;-64
2024/03/13 08:39:25;;;;;;;26.00;18.40;;;7.80;99.90;;;;;;5013867;28;20980;-64
2024/03/13 08:42:12;;;;;;;25.67;17.70;;;7.80;99.90;;;;;;5016818;28;20467;-64
2024/03/13 08:44:57;;;;;;;26.77;18.70;;;7.90;99.90;;;;;;5015707;28;21028;-64
2024/03/13 08:47:43;;;;;;;32.23;19.57;;;7.90;99.90;;;;;;5016506;28;20458;-64
2024/03/13 08:50:28;;;;;;;27.70;18.03;;;7.90;99.90;;;;;;5000090;28;20614;-64
2024/03/13 08:53:14;;;;;;;28.27;19.07;;;7.90;99.90;;;;;;5017979;28;20467;-64
2024/03/13 08:56:00;;;;;;;27.00;17.60;;;7.90;99.90;;;;;;5016745;28;20568;-64
2024/03/13 08:58:45;;;;;;;27.80;19.10;;;8.00;99.90;;;;;;5010540;28;20472;-63
2024/03/13 09:01:31;;;;;;;31.50;18.10;;;8.00;99.90;;;;;;4999510;28;20491;-65
2024/03/13 09:04:17;;;;;;;24.57;17.50;;;8.00;99.90;;;;;;4999467;28;20486;-64
2024/03/13 09:07:03;;;;;;;27.60;18.10;;;8.00;99.90;;;;;;5015968;28;20543;-64
2024/03/13 09:09:32;;;;;;;26.83;18.40;;;8.10;99.90;;;;;;5015362;28;20850;-64
2024/03/13 09:12:00;;;;;;;29.20;18.87;;;8.10;99.90;;;;;;4999551;28;20483;-64
2024/03/13 09:14:28;;;;;;;25.00;18.27;;;8.10;99.90;;;;;;5015650;28;20485;-63
2024/03/13 09:16:57;;;;;;;25.57;17.60;;;8.20;99.90;;;;;;5015597;28;21315;-64
2024/03/13 09:19:26;;;;;;;26.33;17.80;;;8.20;99.90;;;;;;5014711;28;20485;-64
2024/03/13 09:21:54;;;;;;;25.97;18.17;;;8.30;99.90;;;;;;5014749;28;20538;-63
2024/03/13 09:24:22;;;;;;;28.50;18.53;;;8.30;99.90;;;;;;5013520;28;20579;-64
2024/03/13 09:26:51;;;;;;;26.77;18.03;;;8.40;99.90;;;;;;5012327;28;20496;-64
2024/03/13 09:29:19;;;;;;;24.07;16.33;;;8.40;99.90;;;;;;5014195;28;20573;-64
2024/03/13 09:31:47;;;;;;;25.53;16.20;;;8.50;99.90;;;;;;4993748;28;20520;-63
2024/03/13 09:34:16;;;;;;;29.03;17.73;;;8.60;99.90;;;;;;5014937;28;20523;-63
2024/03/13 09:36:44;;;;;;;25.70;17.50;;;8.70;99.90;;;;;;5015176;28;21039;-63
2024/03/13 09:39:15;;;;;;;22.83;16.73;;;8.80;99.90;;;;;;5014347;28;20853;-64
2024/03/13 09:41:44;;;;;;;24.77;16.13;;;8.90;99.90;;;;;;5015096;28;20549;-63
2024/03/13 09:44:15;;;;;;;25.07;16.63;;;8.90;99.90;;;;;;5013463;28;20546;-63
2024/03/13 09:46:43;;;;;;;22.97;16.90;;;9.00;99.90;;;;;;5015250;28;20491;-63
2024/03/13 09:49:11;;;;;;;23.00;15.83;;;9.00;99.90;;;;;;5011069;28;20566;-64
2024/03/13 09:51:42;;;;;;;24.37;17.03;;;9.00;99.90;;;;;;5013025;28;20496;-64
2024/03/13 09:54:11;;;;;;;24.10;16.10;;;9.10;99.90;;;;;;5013565;28;20495;-65
2024/03/13 09:56:40;;;;;;;20.53;14.80;;;9.20;99.90;;;;;;5011925;28;20496;-66
2024/03/13 09:59:09;;;;;;;22.10;15.57;;;9.30;99.90;;;;;;5017581;28;21006;-66
2024/03/13 10:01:38;;;;;;;25.70;15.87;;;9.40;99.90;;;;;;4999132;28;20520;-66
2024/03/13 10:04:10;;;;;;;21.90;15.03;;;9.50;99.90;;;;;;5012912;28;20840;-66
2024/03/13 10:06:39;;;;;;;22.37;15.50;;;9.50;99.90;;;;;;5017269;28;20865;-65
2024/03/13 10:09:12;;;;;;;20.87;14.80;;;9.60;99.90;;;;;;5016215;28;20463;-66
2024/03/13 10:11:42;;;;;;;22.40;15.67;;;9.70;99.90;;;;;;4999082;28;20494;-65
2024/03/13 10:14:11;;;;;;;20.03;15.57;;;9.80;99.90;;;;;;5014102;28;20494;-65
2024/03/13 10:16:40;;;;;;;23.57;15.93;;;9.90;99.90;;;;;;5015356;28;20464;-66
2024/03/13 10:19:08;;;;;;;22.57;15.30;;;10.00;99.90;;;;;;5024161;28;20546;-66
2024/03/13 10:21:36;;;;;;;22.30;15.37;;;10.00;99.90;;;;;;5000092;28;20522;-66
2024/03/13 10:24:05;;;;;;;20.53;13.73;;;10.00;99.90;;;;;;5016020;28;20546;-65
2024/03/13 10:26:38;;;;;;;18.37;14.10;;;10.00;99.90;;;;;;5016600;28;20474;-65
2024/03/13 10:29:08;;;;;;;20.50;15.00;;;10.10;99.90;;;;;;5016069;28;20479;-66
2024/03/13 10:31:36;;;;;;;20.47;15.20;;;10.30;99.90;;;;;;4999498;28;20495;-66
2024/03/13 10:34:05;;;;;;;18.93;14.27;;;10.30;99.90;;;;;;5013314;28;20919;-66
2024/03/13 10:36:33;;;;;;;20.27;14.50;;;10.50;99.90;;;;;;5015138;28;20476;-66
2024/03/13 10:39:02;;;;;;;17.90;13.43;;;10.50;99.90;;;;;;5016849;28;20464;-66
2024/03/13 10:41:30;;;;;;;20.60;12.43;;;10.60;99.90;;;;;;5013479;28;21441;-66
2024/03/13 10:44:00;;;;;;;16.80;12.50;;;10.70;99.90;;;;;;5012421;28;20574;-66
2024/03/13 10:46:30;;;;;;;16.40;12.47;;;10.70;99.90;;;;;;4998505;28;20467;-65
2024/03/13 10:48:59;;;;;;;17.60;12.97;;;10.80;99.90;;;;;;5016269;28;20592;-66
2024/03/13 10:51:27;;;;;;;15.27;12.23;;;10.90;99.90;;;;;;5015438;28;20501;-66
2024/03/13 10:53:56;;;;;;;15.33;11.77;;;10.90;99.90;;;;;;5014184;28;20571;-66
2024/03/13 10:56:24;;;;;;;19.50;11.90;;;11.00;99.90;;;;;;5017794;28;21071;-65
2024/03/13 10:58:52;;;;;;;14.57;11.83;;;11.00;99.90;;;;;;5015829;28;20520;-66
2024/03/13 11:01:21;;;;;;;13.47;11.37;;;11.00;99.90;;;;;;5013175;28;20606;-66
2024/03/13 11:03:57;;;;;;;14.23;11.00;;;10.80;99.90;;;;;;5013724;28;20591;-66
2024/03/13 11:06:27;;;;;;;16.23;11.90;;;10.80;99.90;;;;;;5016683;28;20503;-66
2024/03/13 11:08:56;;;;;;;15.57;11.47;;;10.80;99.90;;;;;;5016254;28;20481;-66
2024/03/13 11:11:24;;;;;;;13.27;10.80;;;10.80;99.90;;;;;;5015165;28;20498;-65
2024/03/13 11:13:58;;;;;;;11.97;9.93;;;10.80;99.90;;;;;;5014590;28;20530;-66
2024/03/13 11:16:26;;;;;;;13.23;11.00;;;11.00;99.90;;;;;;5016103;28;20464;-65
2024/03/13 11:18:55;;;;;;;17.20;13.03;;;11.20;99.90;;;;;;5015309;28;21105;-66
2024/03/13 11:21:23;;;;;;;16.47;13.10;;;11.30;99.90;;;;;;5013487;28;20491;-66
2024/03/13 11:23:52;;;;;;;15.30;11.53;;;11.40;99.90;;;;;;5016096;28;20484;-66
2024/03/13 11:26:20;;;;;;;14.73;12.90;;;11.50;99.90;;;;;;5018176;28;20474;-65
2024/03/13 11:28:49;;;;;;;15.93;12.80;;;11.60;99.90;;;;;;5018251;28;20475;-66
2024/03/13 11:31:17;;;;;;;14.67;11.53;;;11.80;99.90;;;;;;5016337;28;21331;-66
2024/03/13 11:33:45;;;;;;;15.57;12.93;;;11.80;99.90;;;;;;5018826;28;20555;-67
2024/03/13 11:36:13;;;;;;;15.87;12.47;;;11.90;99.90;;;;;;5003645;28;20518;-66
2024/03/13 11:38:42;;;;;;;14.03;11.03;;;11.90;99.90;;;;;;5018171;28;20597;-66
2024/03/13 11:41:12;;;;;;;13.30;11.07;;;11.80;99.90;;;;;;5017972;28;20494;-66
2024/03/13 11:43:41;;;;;;;13.00;11.50;;;11.70;99.90;;;;;;5012881;28;20495;-66
2024/03/13 11:46:11;;;;;;;14.67;11.87;;;11.60;99.90;;;;;;4999129;28;20491;-66
2024/03/13 11:48:41;;;;;;;12.83;10.30;;;11.60;99.90;;;;;;5004789;28;20464;-66
2024/03/13 11:51:10;;;;;;;13.80;10.60;;;11.60;99.90;;;;;;5017279;28;20492;-66
2024/03/13 11:53:40;;;;;;;12.93;10.43;;;11.50;99.90;;;;;;5015427;28;20475;-65
2024/03/13 11:56:09;;;;;;;12.90;11.30;;;11.40;99.90;;;;;;5018807;28;20467;-66
2024/03/13 11:58:38;;;;;;;14.33;10.73;;;11.40;99.90;;;;;;5016984;28;20527;-66
2024/03/13 12:01:08;;;;;;;12.77;10.80;;;11.40;99.90;;;;;;5017288;28;20519;-66
2024/03/13 12:03:42;;;;;;;12.70;10.90;;;11.40;99.90;;;;;;5017167;28;20492;-66
2024/03/13 12:06:38;;;;;;;13.23;10.57;;;11.40;99.90;;;;;;5017835;28;20921;-66
2024/03/13 12:09:10;;;;;;;12.17;10.77;;;11.50;99.90;;;;;;5015054;28;21211;-66
2024/03/13 12:11:39;;;;;;;13.10;10.40;;;11.40;99.90;;;;;;5017350;28;20900;-66
2024/03/13 12:14:07;;;;;;;14.13;12.23;;;11.40;99.90;;;;;;5016530;28;20491;-67
2024/03/13 12:16:35;;;;;;;12.20;10.40;;;11.40;99.90;;;;;;5001025;28;20997;-67
2024/03/13 12:19:04;;;;;;;12.93;10.80;;;11.40;99.90;;;;;;5018268;28;20492;-67
2024/03/13 12:21:34;;;;;;;11.40;9.67;;;11.40;99.90;;;;;;5009387;28;21039;-66
2024/03/13 12:24:03;;;;;;;12.77;10.17;;;11.50;99.90;;;;;;4999025;28;20487;-66
2024/03/13 12:26:31;;;;;;;13.83;10.50;;;11.50;99.90;;;;;;5016545;28;20465;-66
2024/03/13 12:29:00;;;;;;;11.83;9.33;;;11.60;99.90;;;;;;5003258;28;20611;-66
2024/03/13 12:31:28;;;;;;;12.40;10.10;;;11.60;99.90;;;;;;5014826;28;20495;-67
2024/03/13 12:33:58;;;;;;;11.73;10.10;;;11.60;99.90;;;;;;5008628;28;20635;-68
2024/03/13 12:36:27;;;;;;;14.50;10.37;;;11.60;99.90;;;;;;5018839;28;20480;-66
2024/03/13 12:38:57;;;;;;;13.80;11.23;;;11.70;99.90;;;;;;5016350;28;20499;-67
2024/03/13 12:41:27;;;;;;;13.77;10.27;;;11.70;99.90;;;;;;5016215;28;20484;-65
2024/03/13 12:43:55;;;;;;;14.17;10.60;;;11.70;99.90;;;;;;5016426;28;20483;-65
2024/03/13 12:46:23;;;;;;;14.10;11.33;;;11.70;99.90;;;;;;5017973;28;20496;-66
2024/03/13 12:48:52;;;;;;;11.77;9.73;;;11.70;99.90;;;;;;5015596;28;20488;-66
2024/03/13 12:51:20;;;;;;;14.70;11.00;;;11.60;99.90;;;;;;5014688;28;25227;-65
2024/03/13 12:53:48;;;;;;;15.37;10.60;;;11.60;99.90;;;;;;5014073;28;20491;-67
2024/03/13 12:56:17;;;;;;;13.80;10.90;;;11.60;99.90;;;;;;5014349;28;20478;-67
2024/03/13 12:58:45;;;;;;;13.83;10.27;;;11.50;99.90;;;;;;5012914;28;20566;-67
2024/03/13 13:01:16;;;;;;;14.17;10.90;;;11.50;99.90;;;;;;5014915;28;20490;-63
2024/03/13 13:03:44;;;;;;;14.10;10.70;;;11.60;99.90;;;;;;5015295;28;20545;-64
2024/03/13 13:06:13;;;;;;;11.67;9.73;;;11.60;99.90;;;;;;5013134;28;20476;-65
2024/03/13 13:08:42;;;;;;;15.00;11.37;;;11.60;99.90;;;;;;4998449;28;21048;-64
2024/03/13 13:11:11;;;;;;;14.30;11.30;;;11.70;99.90;;;;;;5009412;28;20612;-68